Time;durP1;ratioP1;P1;durP2;ratioP2;P2;SDS_P1;SDS_P2;PMS_P1;PMS_P2;Temp;Humidity;BMP_temperature;BMP_pressure;BME280_temperature;BME280_humidity;BME280_pressure;Samples;Min_cycle;Max_cycle;Signal;HPM_P1;HPM_P2
2021/03/31 00:02:20;;;;;;;14.57;6.10;;;11.60;99.90;;;11.40;62.45;101767.44;5028340;28;20363;-53
2021/03/31 00:04:46;;;;;;;12.27;4.72;;;11.90;99.90;;;11.48;61.67;101764.22;5027771;28;20052;-51
2021/03/31 00:07:12;;;;;;;8.50;4.65;;;12.00;99.90;;;11.57;61.00;101761.75;5027888;28;20053;-54
2021/03/31 00:09:41;;;;;;;8.23;4.50;;;12.00;99.90;;;11.58;60.01;101760.78;5028505;28;20044;-54
2021/03/31 00:12:08;;;;;;;8.88;4.45;;;12.10;99.80;;;11.65;60.09;101761.16;5028211;28;20087;-51
2021/03/31 00:14:36;;;;;;;7.43;4.15;;;12.20;99.10;;;11.74;59.64;101749.16;5028095;28;20025;-51
2021/03/31 00:17:02;;;;;;;10.07;3.53;;;12.20;98.60;;;11.83;59.18;101756.28;5028352;28;20048;-51
2021/03/31 00:19:28;;;;;;;7.68;4.43;;;12.30;97.90;;;11.81;59.34;101753.00;5027377;28;20044;-51
2021/03/31 00:21:54;;;;;;;6.70;3.97;;;12.30;97.70;;;11.73;59.61;101743.09;5028038;28;20041;-51
2021/03/31 00:24:20;;;;;;;6.15;3.10;;;12.30;97.70;;;11.93;58.50;101733.72;5028033;28;20045;-52
2021/03/31 00:26:46;;;;;;;5.97;2.90;;;12.40;96.80;;;11.92;58.45;101737.28;5028201;28;20501;-55
2021/03/31 00:29:12;;;;;;;6.10;3.55;;;12.40;96.20;;;11.94;58.01;101736.19;5009978;28;20543;-51
2021/03/31 00:31:38;;;;;;;10.63;3.78;;;12.40;95.80;;;11.80;58.69;101741.72;5028447;28;20480;-50
2021/03/31 00:34:04;;;;;;;7.75;4.05;;;12.40;96.00;;;11.71;59.17;101736.34;5027548;28;20044;-52
2021/03/31 00:36:29;;;;;;;8.75;3.40;;;12.30;96.70;;;11.70;59.36;101739.91;5028246;28;20037;-51
2021/03/31 00:38:55;;;;;;;8.23;3.40;;;12.30;96.90;;;11.73;58.96;101727.44;5027643;28;20037;-51
2021/03/31 00:41:21;;;;;;;4.35;2.60;;;12.30;96.60;;;11.90;58.23;101729.56;5027935;28;20041;-54
2021/03/31 00:43:47;;;;;;;5.85;2.42;;;12.40;95.90;;;12.01;57.58;101725.25;5027422;28;20037;-49
2021/03/31 00:46:13;;;;;;;7.97;2.97;;;12.50;95.20;;;12.07;57.19;101723.00;5027581;28;20063;-52
2021/03/31 00:48:39;;;;;;;9.57;3.50;;;12.50;94.70;;;12.10;57.03;101725.34;5028228;28;20144;-54
2021/03/31 00:51:05;;;;;;;7.20;2.78;;;12.60;94.20;;;12.18;56.68;101717.72;5027952;28;20026;-55
2021/03/31 00:53:41;;;;;;;9.05;2.75;;;12.70;93.70;;;12.18;56.55;101717.72;5027840;28;20152;-53
2021/03/31 00:56:08;;;;;;;5.97;2.50;;;12.70;93.60;;;12.15;56.91;101715.38;5027509;28;20052;-50
2021/03/31 00:58:36;;;;;;;5.50;2.50;;;12.70;93.60;;;12.10;57.19;101720.13;5027950;28;20422;-52
2021/03/31 01:01:02;;;;;;;6.93;2.60;;;12.70;93.80;;;12.13;57.17;101719.06;5026864;28;20060;-56
2021/03/31 01:03:29;;;;;;;4.32;3.00;;;12.70;93.80;;;12.16;56.89;101719.63;5027130;28;20087;-51
2021/03/31 01:05:55;;;;;;;8.50;2.55;;;12.70;93.70;;;12.19;56.83;101713.34;5027064;28;20128;-51
2021/03/31 01:08:21;;;;;;;5.47;2.05;;;12.70;93.60;;;12.16;56.96;101710.97;5027761;28;20428;-52
2021/03/31 01:10:56;;;;;;;4.70;2.47;;;12.70;93.50;;;12.13;57.25;101709.44;5027514;28;20135;-51
2021/03/31 01:13:28;;;;;;;7.60;2.85;;;12.70;93.60;;;12.10;57.19;101709.69;5027634;28;20034;-52
2021/03/31 01:16:06;;;;;;;8.50;2.63;;;12.60;93.70;;;12.12;57.08;101702.56;5027404;28;20041;-53
2021/03/31 01:19:14;;;;;;;6.90;2.55;;;12.60;93.90;;;12.21;56.48;101704.41;5027577;28;20068;-51
2021/03/31 01:22:36;;;;;;;5.20;2.15;;;12.70;93.20;;;12.25;56.27;101707.63;5011808;28;20051;-53
2021/03/31 01:25:27;;;;;;;10.00;2.58;;;12.70;92.80;;;12.33;55.76;101712.19;5028017;28;20041;-51
2021/03/31 01:28:34;;;;;;;3.70;2.00;;;12.80;92.10;;;12.30;55.81;101705.44;5027099;28;20046;-56
2021/03/31 01:31:40;;;;;;;4.57;2.57;;;12.80;92.00;;;12.21;56.23;101700.97;5027250;28;20053;-50
2021/03/31 01:34:36;;;;;;;6.07;3.92;;;12.80;92.20;;;11.83;58.51;101704.06;4976771;28;20346;-49
2021/03/31 01:37:28;;;;;;;7.47;4.72;;;12.50;93.50;;;11.62;59.39;101694.34;5027048;28;20053;-53
2021/03/31 01:39:58;;;;;;;5.95;4.88;;;12.30;94.60;;;11.36;60.29;101706.00;5027621;28;20048;-50
2021/03/31 01:42:28;;;;;;;6.53;4.25;;;12.10;95.40;;;11.39;59.97;101687.50;5026938;28;20033;-52
2021/03/31 01:45:02;;;;;;;13.40;5.78;;;12.00;96.10;;;11.38;60.18;101690.22;5009802;28;20515;-53
2021/03/31 01:47:35;;;;;;;8.95;6.22;;;12.00;96.40;;;11.21;60.97;101688.94;5009660;28;20169;-55
2021/03/31 01:50:04;;;;;;;12.38;6.35;;;11.90;97.10;;;10.96;62.13;101689.97;5027473;28;20590;-49
2021/03/31 01:52:32;;;;;;;9.93;5.88;;;11.70;98.30;;;10.90;62.28;101699.09;4992894;28;20049;-49
2021/03/31 01:54:59;;;;;;;9.15;4.57;;;11.50;99.40;;;11.09;61.45;101695.09;5026273;28;20530;-52
2021/03/31 01:57:26;;;;;;;12.80;5.20;;;11.60;99.10;;;11.06;61.69;101688.34;5027462;28;20448;-53
2021/03/31 01:59:54;;;;;;;15.48;6.72;;;11.60;99.30;;;10.80;62.98;101692.13;5013082;28;20037;-51
2021/03/31 02:02:23;;;;;;;14.38;7.20;;;11.50;99.90;;;10.54;64.35;101691.47;5030382;28;20480;-52
2021/03/31 02:04:49;;;;;;;14.23;6.82;;;11.30;99.90;;;10.42;64.95;101687.97;5030948;28;20125;-55
2021/03/31 02:07:20;;;;;;;10.60;6.07;;;11.10;99.90;;;10.50;64.50;101690.03;5030236;28;20472;-51
2021/03/31 02:09:48;;;;;;;13.85;5.82;;;11.10;99.90;;;10.50;64.31;101693.47;5030574;28;20156;-53
2021/03/31 02:12:23;;;;;;;8.02;4.22;;;11.10;99.90;;;10.65;64.19;101696.69;5030486;28;20466;-49
2021/03/31 02:14:53;;;;;;;5.63;2.63;;;11.10;99.90;;;10.85;62.26;101685.63;4996561;28;20056;-51
2021/03/31 02:17:23;;;;;;;7.05;2.30;;;11.30;99.90;;;11.41;59.63;101680.38;5029992;28;20073;-52
2021/03/31 02:19:51;;;;;;;2.92;2.03;;;11.70;99.30;;;11.60;58.70;101675.38;5012513;28;20037;-49
2021/03/31 02:22:20;;;;;;;7.78;2.08;;;12.00;97.80;;;11.69;58.09;101680.81;5012298;28;20033;-56
2021/03/31 02:24:47;;;;;;;3.75;2.03;;;12.10;96.50;;;11.94;57.23;101670.06;5030484;28;20045;-49
2021/03/31 02:27:14;;;;;;;5.95;1.88;;;12.30;95.60;;;11.91;57.20;101673.75;5030028;28;20036;-49
2021/03/31 02:29:44;;;;;;;3.65;2.10;;;12.40;95.10;;;11.95;57.18;101674.34;5028755;28;20037;-51
2021/03/31 02:32:11;;;;;;;5.50;2.70;;;12.40;94.70;;;11.83;57.64;101670.09;5030046;28;20117;-54
2021/03/31 02:34:39;;;;;;;7.68;3.75;;;12.40;94.70;;;11.45;59.39;101663.53;5012682;28;20441;-54
2021/03/31 02:37:06;;;;;;;12.60;5.20;;;12.10;96.10;;;11.25;60.19;101672.94;5012028;28;20365;-53
2021/03/31 02:39:38;;;;;;;13.88;4.72;;;11.90;97.00;;;11.17;60.71;101662.25;5030076;28;20064;-54
2021/03/31 02:42:09;;;;;;;8.27;2.58;;;11.80;97.50;;;11.32;59.77;101664.63;5158223;23;20073;-53
2021/03/31 02:44:43;;;;;;;5.25;2.03;;;11.80;97.20;;;11.75;58.04;101664.66;4992992;28;20053;-54
2021/03/31 02:47:13;;;;;;;2.42;1.52;;;12.10;96.10;;;11.96;56.91;101671.63;5010233;28;20260;-56
2021/03/31 02:49:45;;;;;;;5.07;2.00;;;12.30;94.70;;;12.05;56.80;101664.00;5004735;28;20520;-56
2021/03/31 02:52:11;;;;;;;5.03;2.25;;;12.50;94.10;;;11.93;57.17;101663.19;4999706;28;20144;-55
2021/03/31 02:54:39;;;;;;;7.22;1.70;;;12.40;93.90;;;12.15;56.19;101665.72;4989713;28;20034;-53
2021/03/31 02:57:08;;;;;;;6.35;2.22;;;12.60;93.20;;;12.18;56.01;101656.81;5010206;28;20125;-55
2021/03/31 02:59:34;;;;;;;6.00;1.88;;;12.60;92.80;;;12.08;56.54;101664.56;5006407;28;20046;-52
2021/03/31 03:02:00;;;;;;;7.10;2.30;;;12.60;92.90;;;11.88;57.32;101668.78;4991215;28;20097;-52
2021/03/31 03:04:26;;;;;;;6.32;2.10;;;12.50;93.30;;;11.80;57.45;101654.72;4973556;28;20129;-51
2021/03/31 03:06:53;;;;;;;4.82;2.10;;;12.40;93.40;;;11.81;57.21;101662.41;5009548;28;20041;-59
2021/03/31 03:09:19;;;;;;;2.30;1.65;;;12.20;93.20;;;11.74;57.58;101663.84;5009546;28;20295;-53
2021/03/31 03:11:46;;;;;;;7.07;2.53;;;12.30;93.50;;;11.80;57.37;101654.72;4991814;28;20038;-55
2021/03/31 03:14:12;;;;;;;3.47;1.67;;;12.30;93.50;;;11.80;57.38;101652.09;5008096;28;20052;-56
2021/03/31 03:16:38;;;;;;;4.43;1.60;;;12.30;93.60;;;11.72;57.59;101650.06;5009457;28;20538;-56
2021/03/31 03:19:05;;;;;;;6.78;2.00;;;12.30;93.80;;;11.66;57.90;101652.34;4992104;28;20034;-56
2021/03/31 03:21:32;;;;;;;4.78;1.98;;;12.20;93.90;;;11.63;57.78;101656.03;4989574;28;20457;-56
2021/03/31 03:23:58;;;;;;;6.57;2.88;;;12.20;93.90;;;11.56;58.14;101647.03;4986912;28;20056;-53
2021/03/31 03:26:26;;;;;;;7.18;2.33;;;12.10;94.10;;;11.51;58.36;101652.59;5009674;28;20165;-53
2021/03/31 03:28:53;;;;;;;4.20;2.00;;;12.00;94.50;;;11.51;58.36;101655.22;4995271;28;20039;-51
2021/03/31 03:31:19;;;;;;;5.85;2.45;;;12.00;94.60;;;11.47;58.82;101658.19;4989869;28;20382;-55
2021/03/31 03:33:46;;;;;;;3.95;2.00;;;12.00;94.90;;;11.39;58.90;101650.94;4989467;28;20468;-57
2021/03/31 03:36:13;;;;;;;7.18;2.22;;;11.90;94.90;;;11.42;58.67;101650.72;5009196;28;20030;-51
2021/03/31 03:38:41;;;;;;;4.00;2.13;;;12.00;95.00;;;11.34;58.84;101650.53;4989725;28;20082;-54
2021/03/31 03:41:13;;;;;;;7.85;2.30;;;11.90;95.10;;;11.25;59.38;101649.44;4989751;28;20131;-54
2021/03/31 03:43:41;;;;;;;4.88;2.60;;;11.80;95.50;;;11.10;59.98;101655.84;5004352;28;20288;-56
2021/03/31 03:46:12;;;;;;;10.35;2.28;;;11.70;96.10;;;10.98;60.45;101649.81;4991186;28;20503;-51
2021/03/31 03:48:39;;;;;;;5.00;2.50;;;11.60;96.60;;;11.10;60.03;101655.03;4990939;28;20027;-55
2021/03/31 03:51:10;;;;;;;5.43;2.50;;;11.60;96.60;;;11.04;60.21;101655.50;4989409;28;20045;-54
2021/03/31 03:53:37;;;;;;;4.30;1.83;;;11.60;96.70;;;11.06;59.83;101661.44;5004305;28;20053;-52
2021/03/31 03:56:12;;;;;;;4.63;1.88;;;11.60;96.70;;;10.97;60.26;101650.75;5008131;28;20044;-47
2021/03/31 03:58:39;;;;;;;10.63;2.40;;;11.60;96.80;;;10.83;60.88;101652.78;4992213;28;20054;-53
2021/03/31 04:01:05;;;;;;;5.30;2.35;;;11.50;97.40;;;10.95;60.19;101651.81;5001323;28;20277;-52
2021/03/31 04:03:32;;;;;;;5.88;1.83;;;11.40;97.40;;;11.08;59.88;101649.09;5008778;28;20507;-54
2021/03/31 04:05:58;;;;;;;4.00;1.95;;;11.60;97.00;;;11.10;59.71;101650.63;5006731;28;20041;-56
2021/03/31 04:08:24;;;;;;;6.20;2.08;;;11.60;97.10;;;11.13;59.48;101650.41;5008444;28;20380;-54
2021/03/31 04:10:57;;;;;;;8.95;1.65;;;11.60;96.70;;;11.10;59.70;101658.47;4995082;28;20147;-50
2021/03/31 04:13:26;;;;;;;11.30;2.25;;;11.60;96.60;;;11.10;59.76;101653.25;4988883;28;20057;-51
2021/03/31 04:16:08;;;;;;;4.38;2.22;;;11.70;96.70;;;11.12;59.77;101648.75;4983107;28;20099;-55
2021/03/31 04:18:36;;;;;;;2.95;1.98;;;11.60;96.60;;;11.17;59.54;101651.00;5008013;28;20029;-51
2021/03/31 04:21:03;;;;;;;6.30;2.25;;;11.70;96.50;;;11.21;59.32;101652.41;4976920;28;20078;-54
2021/03/31 04:23:29;;;;;;;4.80;2.15;;;11.70;96.30;;;11.20;59.24;101661.19;4989183;28;20026;-54
2021/03/31 04:25:57;;;;;;;2.45;1.55;;;11.70;96.10;;;11.27;59.19;101649.34;4999834;28;20038;-53
2021/03/31 04:28:24;;;;;;;3.95;1.60;;;11.70;96.00;;;11.28;58.77;101649.22;5003770;28;20034;-52
2021/03/31 04:30:52;;;;;;;4.28;1.65;;;11.80;95.70;;;11.38;58.47;101658.91;5007166;28;20038;-53
2021/03/31 04:33:19;;;;;;;6.25;1.73;;;11.90;95.20;;;11.52;57.34;101654.25;4980672;28;20038;-56
2021/03/31 04:35:46;;;;;;;2.85;1.45;;;12.00;94.60;;;11.67;57.06;101654.00;4988958;28;20034;-54
2021/03/31 04:38:14;;;;;;;6.53;1.48;;;12.10;93.80;;;11.80;56.49;101671.22;4995969;28;20041;-55
2021/03/31 04:41:02;;;;;;;5.55;1.35;;;12.30;93.30;;;11.86;55.98;101647.19;5008389;28;20461;-56
2021/03/31 04:43:31;;;;;;;5.47;1.30;;;12.30;92.70;;;11.94;55.95;101663.06;5005918;28;20061;-52
2021/03/31 04:46:00;;;;;;;3.33;1.63;;;12.40;92.20;;;11.91;56.04;101655.47;5008419;28;20149;-50
2021/03/31 04:48:26;;;;;;;6.18;1.75;;;12.40;92.00;;;11.78;56.39;101652.22;4998764;28;20045;-51
2021/03/31 04:50:53;;;;;;;4.63;2.35;;;12.40;92.10;;;11.81;56.17;101651.97;4988380;28;20052;-56
2021/03/31 04:53:19;;;;;;;4.05;1.60;;;12.30;92.10;;;11.87;56.14;101654.06;4988913;28;20046;-56
2021/03/31 04:55:45;;;;;;;4.20;1.42;;;12.40;92.00;;;11.92;55.75;101654.53;4988913;28;20501;-55
2021/03/31 04:58:12;;;;;;;3.28;1.40;;;12.40;91.60;;;11.84;56.29;101656.09;4993880;28;20041;-56
2021/03/31 05:00:38;;;;;;;2.63;1.38;;;12.40;91.80;;;11.73;56.75;101653.50;5005837;28;20124;-49
2021/03/31 05:03:06;;;;;;;3.15;1.48;;;12.30;92.20;;;11.62;57.32;101662.19;5007194;28;20030;-50
2021/03/31 05:05:32;;;;;;;5.85;2.10;;;12.20;92.60;;;11.58;57.56;101661.59;4985908;28;20425;-51
2021/03/31 05:07:58;;;;;;;3.45;1.90;;;12.10;92.90;;;11.55;57.58;101661.03;4988259;28;20121;-55
2021/03/31 05:10:25;;;;;;;7.05;2.08;;;12.10;93.10;;;11.54;57.67;101668.03;4988746;28;20027;-51
2021/03/31 05:12:52;;;;;;;3.90;2.03;;;12.10;93.20;;;11.67;57.01;101664.44;4988369;28;20069;-54
2021/03/31 05:15:19;;;;;;;5.00;1.85;;;12.20;92.80;;;11.64;57.40;101655.91;4987854;28;20038;-53
2021/03/31 05:17:45;;;;;;;6.18;2.45;;;12.20;92.80;;;11.59;57.40;101658.03;4988090;28;20046;-54
2021/03/31 05:20:12;;;;;;;5.43;1.80;;;12.20;92.80;;;11.63;57.14;101649.03;5004899;28;20034;-51
2021/03/31 05:22:39;;;;;;;4.82;1.50;;;12.20;92.70;;;12.27;55.54;101658.69;5007556;28;20513;-58
2021/03/31 05:25:07;;;;;;;5.90;1.15;;;12.60;91.80;;;13.05;53.29;101649.47;4990877;28;20038;-52
2021/03/31 05:27:34;;;;;;;4.03;1.60;;;13.50;89.80;;;14.12;51.05;101654.78;4982393;28;20517;-56
2021/03/31 05:30:02;;;;;;;4.00;1.70;;;14.90;82.40;;;14.64;49.33;101654.47;5005348;28;20038;-56
2021/03/31 05:32:28;;;;;;;6.30;1.88;;;15.90;75.40;;;14.86;48.98;101652.28;5011376;28;20512;-58
2021/03/31 05:34:54;;;;;;;8.63;2.65;;;16.40;72.60;;;15.19;48.16;101640.41;5000134;28;20049;-52
2021/03/31 05:37:20;;;;;;;7.88;2.17;;;16.90;68.90;;;15.34;47.80;101646.00;4974048;28;20042;-55
2021/03/31 05:39:46;;;;;;;5.47;1.80;;;17.20;66.60;;;15.50;47.41;101651.44;5007463;28;20065;-53
2021/03/31 05:42:12;;;;;;;6.18;1.83;;;17.20;65.50;;;15.80;46.88;101639.78;5010949;28;20061;-50
2021/03/31 05:44:39;;;;;;;3.05;1.33;;;17.70;64.00;;;16.20;45.65;101644.53;4993486;28;20038;-56
2021/03/31 05:47:09;;;;;;;2.58;1.67;;;18.30;61.20;;;16.22;45.73;101647.03;4991445;28;20137;-55
2021/03/31 05:49:38;;;;;;;7.35;1.65;;;18.50;60.10;;;16.18;44.67;101650.94;4987437;28;20049;-56
2021/03/31 05:52:07;;;;;;;5.05;1.73;;;18.70;58.00;;;16.12;45.28;101644.47;4991831;28;20366;-52
2021/03/31 05:54:33;;;;;;;9.13;2.53;;;18.80;57.60;;;15.76;46.02;101661.25;5006259;28;20049;-57
2021/03/31 05:57:00;;;;;;;6.38;1.98;;;18.40;58.50;;;15.72;46.33;101644.94;5010875;28;20110;-54
2021/03/31 05:59:26;;;;;;;5.30;2.10;;;18.60;58.10;;;15.77;45.63;101647.13;4978921;28;20042;-55
2021/03/31 06:01:52;;;;;;;5.50;1.98;;;18.70;57.20;;;15.95;45.35;101645.34;4991385;28;20038;-53
2021/03/31 06:04:18;;;;;;;2.85;2.00;;;18.90;56.90;;;15.55;46.07;101636.06;5003208;28;20049;-53
2021/03/31 06:06:44;;;;;;;5.20;1.23;;;18.60;56.50;;;15.35;45.86;101642.41;5011079;28;20092;-53
2021/03/31 06:09:11;;;;;;;5.32;1.38;;;18.30;56.90;;;15.50;45.81;101646.19;4999483;28;20073;-55
2021/03/31 06:11:59;;;;;;;7.75;1.55;;;18.10;57.40;;;15.84;44.86;101642.94;4974050;28;20348;-52
2021/03/31 06:14:39;;;;;;;3.95;2.13;;;18.50;56.90;;;16.38;43.30;101639.25;4973094;28;20038;-54
2021/03/31 06:17:11;;;;;;;7.95;2.05;;;19.40;54.60;;;16.80;43.01;101642.00;4985699;28;20044;-57
2021/03/31 06:19:43;;;;;;;14.23;2.22;;;20.10;53.40;;;16.86;42.02;101637.94;5009250;28;20045;-54
2021/03/31 06:25:01;;;;;;;4.15;1.20;;;20.10;52.10;;;17.17;41.26;101643.47;5002860;28;20042;-56
2021/03/31 06:27:28;;;;;;;6.43;1.73;;;20.80;50.50;;;17.12;41.46;101638.69;5010761;28;20095;-55
2021/03/31 06:30:06;;;;;;;3.72;1.20;;;20.70;50.20;;;17.33;41.48;101635.66;5008131;28;20476;-54
2021/03/31 06:32:40;;;;;;;6.30;1.60;;;20.70;50.30;;;17.53;40.64;101638.81;4992093;28;20131;-55
2021/03/31 06:35:17;;;;;;;4.97;1.42;;;20.60;49.70;;;17.17;40.77;101638.22;5010668;28;20393;-55
2021/03/31 06:37:44;;;;;;;5.20;1.77;;;19.50;51.90;;;16.46;42.68;101638.50;4978249;28;20046;-56
2021/03/31 06:40:35;;;;;;;5.15;1.55;;;18.20;55.20;;;15.54;44.50;101637.03;4956964;28;20035;-57
2021/03/31 06:43:36;;;;;;;4.70;1.50;;;16.90;58.10;;;15.33;45.59;101644.34;4973168;28;20058;-55
2021/03/31 06:46:07;;;;;;;5.60;1.60;;;16.20;61.00;;;15.21;46.06;101642.88;4986297;23;20050;-59
2021/03/31 06:48:35;;;;;;;3.55;1.60;;;16.00;62.10;;;15.20;46.08;101634.19;5004451;28;20042;-52
2021/03/31 06:51:01;;;;;;;4.45;1.52;;;15.80;62.70;;;15.24;46.08;101632.91;5007377;28;20511;-52
2021/03/31 06:53:29;;;;;;;3.78;1.20;;;15.90;62.80;;;15.13;46.57;101648.03;5001066;28;20504;-51
2021/03/31 06:56:05;;;;;;;5.18;1.55;;;15.80;63.40;;;15.32;46.27;101642.69;5003588;28;20410;-52
2021/03/31 06:58:35;;;;;;;4.95;1.95;;;15.90;64.20;;;15.42;46.40;101638.22;5009827;28;20049;-53
2021/03/31 07:01:01;;;;;;;6.30;2.17;;;16.00;64.00;;;15.68;46.08;101637.50;5009799;28;20030;-50
2021/03/31 07:03:27;;;;;;;6.43;1.40;;;16.20;64.00;;;15.86;45.71;101630.47;5007638;28;20056;-51
2021/03/31 07:05:53;;;;;;;6.45;1.35;;;16.30;63.70;;;15.91;45.87;101623.78;5008022;28;20143;-51
2021/03/31 07:08:19;;;;;;;5.97;1.38;;;16.40;63.90;;;15.93;45.88;101626.25;5009509;28;20097;-50
2021/03/31 07:10:55;;;;;;;4.20;1.35;;;16.50;63.70;;;15.90;45.24;101619.50;5009084;28;20452;-56
2021/03/31 07:13:35;;;;;;;5.03;1.58;;;16.50;63.10;;;15.98;44.94;101618.75;5008602;28;20535;-52
2021/03/31 07:16:05;;;;;;;2.63;1.00;;;16.80;62.90;;;16.03;45.06;101621.75;5009574;28;20306;-49
2021/03/31 07:18:33;;;;;;;6.30;1.45;;;16.80;62.40;;;16.00;44.89;101616.78;4991381;28;20041;-56
2021/03/31 07:21:00;;;;;;;9.40;1.60;;;16.70;62.50;;;16.19;44.58;101615.78;5009668;28;20036;-53
2021/03/31 07:23:27;;;;;;;3.83;1.52;;;16.70;62.40;;;16.31;44.52;101622.44;5006344;28;20053;-57
2021/03/31 07:25:55;;;;;;;4.50;1.38;;;16.80;62.30;;;16.22;44.50;101620.72;5000770;28;20474;-49
2021/03/31 07:28:33;;;;;;;9.93;1.55;;;16.80;62.30;;;16.52;43.71;101624.72;4990787;28;20133;-52
2021/03/31 07:31:01;;;;;;;6.93;1.33;;;16.90;62.40;;;16.61;43.84;101618.50;5009387;28;20049;-57
2021/03/31 07:33:33;;;;;;;6.30;1.15;;;17.10;62.10;;;16.73;43.64;101625.19;5006279;28;20029;-51
2021/03/31 07:36:01;;;;;;;7.07;1.40;;;17.20;61.70;;;16.69;43.29;101613.31;5005532;28;20445;-56
2021/03/31 07:38:29;;;;;;;2.53;1.02;;;17.20;61.20;;;16.75;43.42;101617.97;5004951;28;20034;-55
2021/03/31 07:40:59;;;;;;;4.38;1.40;;;17.20;61.30;;;16.86;43.25;101615.06;4988205;28;20058;-54
2021/03/31 07:43:41;;;;;;;3.63;1.55;;;17.30;61.50;;;16.88;42.62;101623.63;5006720;28;20088;-51
2021/03/31 07:46:19;;;;;;;5.53;1.17;;;17.40;60.90;;;17.03;42.61;101620.38;5003963;28;20053;-58
2021/03/31 07:48:46;;;;;;;9.73;1.42;;;17.40;61.10;;;17.32;42.30;101618.19;4989415;28;20038;-50
2021/03/31 07:51:24;;;;;;;4.93;1.30;;;17.60;60.80;;;17.51;41.51;101615.25;5008841;28;20084;-55
2021/03/31 07:53:54;;;;;;;5.97;1.13;;;17.90;60.40;;;17.51;41.61;101614.44;4979124;28;20050;-56
2021/03/31 07:56:33;;;;;;;5.28;1.20;;;17.90;59.50;;;17.54;40.90;101617.56;5006211;28;20030;-56
2021/03/31 07:59:02;;;;;;;2.10;0.95;;;18.00;59.20;;;17.85;41.12;101609.09;4986290;28;20389;-48
2021/03/31 08:01:58;;;;;;;7.70;1.40;;;18.20;59.40;;;17.95;39.75;101609.75;5004460;28;20156;-52
2021/03/31 08:04:27;;;;;;;2.42;1.00;;;18.30;58.10;;;18.29;40.48;101620.09;5005184;28;20034;-54
2021/03/31 08:06:59;;;;;;;5.57;1.10;;;18.50;58.70;;;18.38;40.25;101613.81;5006797;28;20404;-56
2021/03/31 08:09:29;;;;;;;2.97;1.45;;;18.70;58.30;;;18.55;39.89;101609.31;4997831;28;20461;-53
2021/03/31 08:12:07;;;;;;;4.75;0.85;;;18.90;57.80;;;18.87;38.84;101606.63;4989565;28;20056;-50
2021/03/31 08:14:40;;;;;;;7.55;1.00;;;19.10;57.40;;;18.86;38.69;101607.63;5005645;28;20045;-55
2021/03/31 08:17:12;;;;;;;3.28;1.08;;;19.20;57.00;;;18.94;38.17;101613.81;5008222;28;20518;-56
2021/03/31 08:19:45;;;;;;;8.00;1.65;;;19.30;55.90;;;19.17;37.90;101612.09;5008415;28;20049;-52
2021/03/31 08:22:38;;;;;;;5.05;0.90;;;19.40;56.30;;;19.34;37.64;101599.63;5008130;28;20037;-53
2021/03/31 08:25:23;;;;;;;4.20;1.17;;;19.60;56.10;;;19.71;36.59;101601.53;5008513;28;20331;-53
2021/03/31 08:28:03;;;;;;;7.00;1.00;;;19.90;54.60;;;19.87;36.82;101593.44;4991368;28;20037;-54
2021/03/31 08:30:31;;;;;;;5.00;1.30;;;20.20;55.00;;;19.97;36.83;101595.84;4990612;28;20152;-56
2021/03/31 08:32:57;;;;;;;5.07;0.90;;;20.30;54.30;;;20.26;36.54;101595.09;5008744;28;20421;-56
2021/03/31 08:35:26;;;;;;;2.72;1.00;;;20.50;54.20;;;20.55;36.08;101589.84;5003325;28;20053;-53
2021/03/31 08:37:53;;;;;;;6.47;1.05;;;20.70;54.00;;;20.63;36.00;101586.28;5008255;28;20128;-50
2021/03/31 08:40:20;;;;;;;7.03;1.13;;;20.90;53.30;;;20.86;35.41;101587.81;5007233;28;20022;-56
2021/03/31 08:42:53;;;;;;;4.40;1.00;;;21.10;52.80;;;20.83;35.16;101588.19;5008793;28;20030;-57
2021/03/31 08:45:28;;;;;;;3.85;0.80;;;21.20;52.40;;;21.02;33.94;101588.63;5006732;28;20420;-57
2021/03/31 08:47:55;;;;;;;2.83;0.90;;;21.30;51.60;;;21.31;34.19;101590.38;5008586;28;20406;-54
2021/03/31 08:50:36;;;;;;;4.22;0.82;;;21.50;51.30;;;21.34;33.18;101595.31;5007760;28;20104;-55
2021/03/31 08:53:06;;;;;;;4.80;0.93;;;21.60;50.40;;;21.57;33.08;101581.91;4990712;28;20049;-55
2021/03/31 08:55:37;;;;;;;2.63;0.93;;;21.80;50.40;;;21.77;33.00;101586.34;5008285;28;20061;-53
2021/03/31 08:58:10;;;;;;;4.82;1.10;;;22.00;50.30;;;21.72;32.95;101582.66;5008868;28;20121;-54
2021/03/31 09:00:44;;;;;;;1.85;0.80;;;22.10;49.50;;;22.07;31.91;101580.91;5007244;28;20033;-54
2021/03/31 09:03:10;;;;;;;5.35;1.10;;;22.30;48.90;;;22.24;32.55;101581.41;4990160;28;20065;-53
2021/03/31 09:05:36;;;;;;;4.82;1.23;;;22.60;49.10;;;22.43;32.13;101580.75;5010357;28;20084;-55
2021/03/31 09:08:02;;;;;;;10.10;1.05;;;22.70;49.00;;;22.44;31.96;101569.91;5013889;28;20057;-53
2021/03/31 09:10:29;;;;;;;4.53;0.98;;;22.80;48.80;;;22.75;31.79;101574.75;5014320;28;20038;-57
2021/03/31 09:12:56;;;;;;;11.40;1.10;;;23.00;48.80;;;22.90;31.50;101563.22;5013695;28;20147;-55
2021/03/31 09:15:22;;;;;;;2.88;1.02;;;23.20;48.40;;;22.79;31.72;101567.25;4995879;28;20148;-56
2021/03/31 09:17:57;;;;;;;3.38;0.93;;;23.20;47.90;;;23.07;29.50;101551.22;5005625;28;20026;-56
2021/03/31 09:20:23;;;;;;;2.60;0.60;;;23.40;47.60;;;23.04;30.98;101556.94;5006489;28;20053;-55
2021/03/31 09:22:50;;;;;;;3.13;0.70;;;23.40;47.00;;;23.16;31.08;101552.63;5013424;28;20091;-58
2021/03/31 09:25:19;;;;;;;4.47;0.60;;;23.50;47.30;;;23.57;30.56;101552.56;5013590;28;20068;-56
2021/03/31 09:27:46;;;;;;;5.03;1.05;;;23.80;47.20;;;23.90;29.22;101546.41;4995891;28;20576;-55
2021/03/31 09:30:14;;;;;;;5.25;0.88;;;24.10;45.30;;;23.90;28.85;101543.75;5013711;28;20122;-58
2021/03/31 09:33:00;;;;;;;3.08;1.00;;;24.20;45.10;;;23.86;28.66;101539.84;4980463;28;20053;-58
2021/03/31 09:35:26;;;;;;;3.58;0.70;;;24.20;45.10;;;23.86;28.99;101535.34;5014287;28;20038;-51
2021/03/31 09:37:53;;;;;;;4.80;1.33;;;24.20;44.90;;;23.91;28.38;101537.38;5014064;28;20054;-53
2021/03/31 09:40:26;;;;;;;2.45;0.55;;;24.30;44.00;;;24.14;28.02;101527.91;4996077;28;20076;-57
2021/03/31 09:43:03;;;;;;;2.92;0.80;;;24.40;44.50;;;24.38;28.01;101526.47;5013993;28;20054;-58
2021/03/31 09:45:34;;;;;;;3.78;1.00;;;24.50;44.70;;;24.45;28.95;101519.28;5013641;28;20540;-56
2021/03/31 09:48:03;;;;;;;10.85;1.00;;;24.70;44.80;;;24.58;28.06;101518.38;5013884;28;20418;-56
2021/03/31 09:50:33;;;;;;;2.83;0.65;;;24.80;44.30;;;24.72;28.32;101519.97;5013872;28;20040;-54
2021/03/31 09:53:04;;;;;;;5.38;1.10;;;24.90;44.10;;;24.75;28.09;101511.53;4996787;28;20145;-56
2021/03/31 09:55:30;;;;;;;8.07;1.20;;;25.10;44.10;;;24.93;28.00;101510.84;5012428;28;20444;-56
2021/03/31 09:57:57;;;;;;;2.28;0.95;;;25.10;44.10;;;25.02;27.76;101506.13;5014016;28;20032;-51
2021/03/31 10:00:25;;;;;;;3.00;0.82;;;25.30;44.00;;;24.80;27.83;101503.72;5013981;28;20101;-57
2021/03/31 10:02:53;;;;;;;3.40;0.70;;;25.20;43.20;;;24.95;27.65;101506.13;5013966;28;20037;-54
2021/03/31 10:05:21;;;;;;;5.55;1.05;;;25.20;43.50;;;24.84;27.49;101500.66;5013579;28;20531;-54
2021/03/31 10:08:02;;;;;;;4.93;1.35;;;25.20;42.90;;;24.97;27.25;101495.28;5013771;28;20029;-54
2021/03/31 10:10:50;;;;;;;4.60;0.70;;;25.20;43.10;;;25.16;25.78;101494.31;5014030;28;20073;-55
2021/03/31 10:13:19;;;;;;;3.33;0.82;;;25.40;41.90;;;25.08;26.72;101497.22;5013627;28;20089;-54
2021/03/31 10:16:05;;;;;;;6.50;0.60;;;25.40;42.30;;;25.35;26.11;101487.19;5013837;28;20037;-57
2021/03/31 10:18:33;;;;;;;5.53;0.88;;;25.60;41.70;;;25.32;26.15;101484.97;5009744;28;20064;-50
2021/03/31 10:21:03;;;;;;;3.33;0.82;;;25.70;41.80;;;25.16;25.69;101480.97;5010877;28;20459;-56
2021/03/31 10:23:37;;;;;;;4.88;0.68;;;25.60;41.00;;;25.17;25.33;101474.59;5009183;28;20121;-56
2021/03/31 10:26:27;;;;;;;3.38;0.98;;;25.50;41.10;;;25.35;24.97;101472.00;5010415;28;20048;-56
2021/03/31 10:29:03;;;;;;;3.83;0.60;;;25.60;40.30;;;25.42;25.36;101472.78;5010697;28;20052;-53
2021/03/31 10:31:35;;;;;;;3.97;0.80;;;25.70;40.50;;;25.50;24.71;101462.88;5011089;28;20038;-54